Time;durP1;ratioP1;P1;durP2;ratioP2;P2;SDS_P1;SDS_P2;PMS_P1;PMS_P2;Temp;Humidity;BMP_temperature;BMP_pressure;BME280_temperature;BME280_humidity;BME280_pressure;Samples;Min_cycle;Max_cycle;Signal;HPM_P1;HPM_P2
2022/06/07 00:03:29;;;;;;;10.60;9.70;;;20.30;99.90;;;;;;10325498;28;20232;-78
2022/06/07 00:08:32;;;;;;;12.98;10.15;;;20.30;99.90;;;;;;10311029;28;20267;-78
2022/06/07 00:13:35;;;;;;;11.00;9.95;;;20.30;99.90;;;;;;10287824;28;20221;-78
2022/06/07 00:18:38;;;;;;;10.38;9.35;;;20.30;99.90;;;;;;10311410;28;20322;-78
2022/06/07 00:23:40;;;;;;;11.30;10.05;;;20.30;99.90;;;;;;10314592;28;20627;-78
2022/06/07 00:28:43;;;;;;;11.07;10.13;;;20.30;99.90;;;;;;10310980;28;20224;-79
2022/06/07 00:33:46;;;;;;;10.32;9.40;;;20.20;99.90;;;;;;10299406;28;20272;-79
2022/06/07 00:38:49;;;;;;;10.02;9.13;;;20.20;99.90;;;;;;10297370;28;20316;-79
2022/06/07 00:44:26;;;;;;;11.38;9.50;;;20.10;99.90;;;;;;10274599;28;20253;-79
2022/06/07 00:49:34;;;;;;;10.68;9.57;;;20.20;99.90;;;;;;10308449;28;20307;-78
2022/06/07 00:54:36;;;;;;;9.90;8.95;;;20.10;99.90;;;;;;10312316;28;20318;-78
2022/06/07 00:59:54;;;;;;;9.35;8.55;;;20.10;99.90;;;;;;10299878;28;20241;-78
2022/06/07 01:04:56;;;;;;;9.75;8.85;;;20.10;99.90;;;;;;10289872;28;20673;-79
2022/06/07 01:15:23;;;;;;;9.18;8.38;;;20.10;99.90;;;;;;10320399;28;20241;-78
2022/06/07 01:20:28;;;;;;;9.45;8.65;;;20.00;99.90;;;;;;10305132;28;20240;-78
2022/06/07 01:25:31;;;;;;;8.68;7.93;;;20.00;99.90;;;;;;10291089;28;20611;-78
2022/06/07 01:30:36;;;;;;;8.68;7.95;;;20.00;99.90;;;;;;10285128;28;20730;-78
2022/06/07 01:35:38;;;;;;;10.77;8.43;;;20.00;99.90;;;;;;10294324;28;20241;-78
2022/06/07 01:46:03;;;;;;;9.82;8.93;;;20.00;99.90;;;;;;10309092;28;20248;-78
2022/06/07 01:51:09;;;;;;;8.88;8.07;;;20.00;99.90;;;;;;10295240;28;20292;-78
2022/06/07 01:56:14;;;;;;;8.63;7.90;;;19.90;99.90;;;;;;10288873;28;20233;-78
2022/06/07 02:01:21;;;;;;;10.00;8.13;;;19.90;99.90;;;;;;10304841;28;20300;-78
2022/06/07 02:06:24;;;;;;;9.15;8.25;;;19.90;99.90;;;;;;10296184;28;20653;-78
2022/06/07 02:11:27;;;;;;;8.82;7.70;;;20.00;99.90;;;;;;10290059;28;20710;-78
2022/06/07 02:16:38;;;;;;;8.43;7.63;;;20.00;99.90;;;;;;10303118;28;20233;-78
2022/06/07 02:21:41;;;;;;;8.10;7.40;;;19.90;99.90;;;;;;10308217;28;20256;-78
2022/06/07 02:26:52;;;;;;;8.27;7.50;;;20.00;99.90;;;;;;10325195;28;20220;-78
2022/06/07 02:32:00;;;;;;;8.00;7.30;;;20.00;99.90;;;;;;10303621;28;20311;-78
2022/06/07 02:37:06;;;;;;;8.40;7.70;;;19.90;99.90;;;;;;10270448;28;20253;-78
2022/06/07 02:42:11;;;;;;;8.00;7.25;;;19.90;99.90;;;;;;10292079;28;20729;-79
2022/06/07 02:47:14;;;;;;;7.93;7.22;;;20.00;99.90;;;;;;10294682;28;20241;-78
2022/06/07 02:52:22;;;;;;;7.28;6.57;;;19.90;99.90;;;;;;10287038;28;20294;-78
2022/06/07 02:57:37;;;;;;;7.68;7.07;;;20.00;99.90;;;;;;10294720;28;20260;-78
2022/06/07 03:02:43;;;;;;;8.45;7.15;;;20.00;99.90;;;;;;10299039;28;20206;-78
2022/06/07 03:07:50;;;;;;;8.30;7.50;;;20.00;99.90;;;;;;10291810;28;20205;-78
2022/06/07 03:12:53;;;;;;;7.53;6.80;;;20.00;99.90;;;;;;10309119;28;20323;-78
2022/06/07 03:17:59;;;;;;;8.18;7.47;;;20.00;99.90;;;;;;10290336;28;20298;-78
2022/06/07 03:23:15;;;;;;;7.75;7.05;;;20.10;99.90;;;;;;10308006;28;20606;-78
2022/06/07 03:28:26;;;;;;;7.82;7.13;;;20.10;99.90;;;;;;10284726;28;20324;-78
2022/06/07 03:33:30;;;;;;;7.25;6.65;;;20.10;99.90;;;;;;10300942;28;20296;-78
2022/06/07 03:38:34;;;;;;;7.07;6.47;;;20.10;99.90;;;;;;10306659;28;20307;-78
2022/06/07 03:43:38;;;;;;;6.95;6.35;;;20.20;99.90;;;;;;10310452;28;20264;-78
2022/06/07 03:48:42;;;;;;;8.02;7.32;;;20.20;99.90;;;;;;10315784;28;20326;-78
2022/06/07 03:53:47;;;;;;;6.63;6.13;;;20.10;99.90;;;;;;10295771;28;20241;-78
2022/06/07 03:58:51;;;;;;;8.52;6.53;;;20.20;99.90;;;;;;10299982;28;20261;-78
2022/06/07 04:04:00;;;;;;;7.68;6.97;;;20.20;99.90;;;;;;10292517;28;20306;-78
2022/06/07 04:09:03;;;;;;;7.65;7.05;;;20.20;99.90;;;;;;10295583;28;20272;-78
2022/06/07 04:14:11;;;;;;;7.60;6.90;;;20.30;99.90;;;;;;10306075;28;20240;-78
2022/06/07 04:19:14;;;;;;;6.95;6.45;;;20.30;99.90;;;;;;10294044;28;20767;-78
2022/06/07 04:24:17;;;;;;;7.13;6.43;;;20.20;99.90;;;;;;10310336;28;20233;-78
2022/06/07 04:29:20;;;;;;;6.93;6.25;;;20.30;99.90;;;;;;10298382;28;20619;-78
2022/06/07 04:34:26;;;;;;;8.05;7.35;;;20.40;99.90;;;;;;10328552;28;20672;-79
2022/06/07 04:39:30;;;;;;;7.88;7.18;;;20.40;99.90;;;;;;10304028;28;20311;-79
2022/06/07 04:44:41;;;;;;;6.88;6.28;;;20.50;99.90;;;;;;10293856;28;20213;-78
2022/06/07 04:49:45;;;;;;;7.15;6.55;;;20.40;99.90;;;;;;10305097;28;20544;-79
2022/06/07 04:54:50;;;;;;;6.97;6.38;;;20.50;99.90;;;;;;10303159;28;20217;-78
2022/06/07 04:59:55;;;;;;;7.28;6.68;;;20.50;99.90;;;;;;10314722;28;20268;-78
2022/06/07 05:04:58;;;;;;;15.43;11.95;;;20.40;99.90;;;;;;10301416;28;20304;-78
2022/06/07 05:10:01;;;;;;;12.88;11.10;;;20.30;99.90;;;;;;10273585;28;20210;-78
2022/06/07 05:15:15;;;;;;;13.13;11.15;;;19.90;99.90;;;;;;10302115;28;20771;-78
2022/06/07 05:20:23;;;;;;;10.43;9.43;;;19.70;99.90;;;;;;10294537;28;20279;-79
2022/06/07 05:25:33;;;;;;;11.75;9.15;;;19.90;99.90;;;;;;10291469;28;20233;-79
2022/06/07 05:30:36;;;;;;;9.18;8.25;;;20.10;99.90;;;;;;10274727;28;20245;-78
2022/06/07 05:35:58;;;;;;;9.57;8.60;;;20.10;99.90;;;;;;10272852;28;20268;-78
2022/06/07 05:41:01;;;;;;;9.43;8.13;;;20.10;99.90;;;;;;10293067;28;20308;-78
2022/06/07 05:46:04;;;;;;;11.35;8.82;;;20.20;99.90;;;;;;10272407;28;20308;-78
2022/06/07 05:51:21;;;;;;;8.68;7.85;;;19.90;99.90;;;;;;10281876;28;20236;-78
2022/06/07 05:56:25;;;;;;;8.48;7.57;;;19.70;99.90;;;;;;10311264;28;20328;-79
2022/06/07 06:01:29;;;;;;;7.60;6.90;;;19.90;99.90;;;;;;10287124;28;20257;-77
2022/06/07 06:06:35;;;;;;;7.53;6.90;;;20.20;99.90;;;;;;10286979;28;20298;-77
2022/06/07 06:11:39;;;;;;;7.55;6.78;;;20.00;99.90;;;;;;10312910;28;20248;-77
2022/06/07 06:16:52;;;;;;;7.32;6.72;;;20.20;99.90;;;;;;10313435;28;20615;-77
2022/06/07 06:22:11;;;;;;;6.80;6.20;;;20.20;99.90;;;;;;10291651;28;20256;-77
2022/06/07 06:27:21;;;;;;;7.03;6.10;;;20.50;99.90;;;;;;10324452;28;20248;-77
2022/06/07 06:32:27;;;;;;;7.70;7.00;;;20.30;99.90;;;;;;10306820;28;20229;-77
2022/06/07 06:37:30;;;;;;;6.93;6.32;;;20.50;99.90;;;;;;10303658;28;20245;-77
2022/06/07 06:42:38;;;;;;;6.90;6.20;;;20.20;99.90;;;;;;10307185;28;20272;-78
2022/06/07 06:48:01;;;;;;;7.13;5.90;;;20.50;99.90;;;;;;10327075;28;20241;-77
2022/06/07 06:53:07;;;;;;;8.07;6.97;;;20.50;99.90;;;;;;10310515;28;20263;-77
2022/06/07 06:58:11;;;;;;;6.25;5.65;;;20.60;99.90;;;;;;10277343;28;20249;-77
2022/06/07 07:03:15;;;;;;;6.57;5.82;;;20.30;99.90;;;;;;10285297;28;20241;-77
2022/06/07 07:08:24;;;;;;;7.47;6.78;;;20.70;99.90;;;;;;10278577;28;20298;-78
2022/06/07 07:13:29;;;;;;;5.70;5.20;;;20.70;99.90;;;;;;10312959;28;20687;-77
2022/06/07 07:18:32;;;;;;;6.57;5.93;;;20.60;99.90;;;;;;10321988;28;20327;-79
2022/06/07 07:23:35;;;;;;;5.60;5.10;;;20.50;99.90;;;;;;10306771;28;20625;-78
2022/06/07 07:28:42;;;;;;;7.10;6.40;;;20.50;99.90;;;;;;10314223;28;20240;-78
2022/06/07 07:33:46;;;;;;;5.43;4.93;;;20.50;99.90;;;;;;10316154;28;20244;-78
2022/06/07 07:38:50;;;;;;;6.25;5.65;;;20.80;99.90;;;;;;10322444;28;20256;-78
2022/06/07 07:43:55;;;;;;;6.60;6.00;;;20.70;99.90;;;;;;10287549;28;20306;-78
2022/06/07 07:48:59;;;;;;;5.85;5.35;;;21.00;99.90;;;;;;10301859;28;20241;-78
2022/06/07 07:54:04;;;;;;;7.70;7.00;;;21.00;99.90;;;;;;10308216;28;20248;-79
2022/06/07 07:59:08;;;;;;;8.93;7.93;;;20.50;99.90;;;;;;10310189;28;20249;-77
2022/06/07 08:04:11;;;;;;;7.28;6.57;;;20.80;99.90;;;;;;10298530;28;20960;-79
2022/06/07 08:09:26;;;;;;;7.97;6.25;;;20.90;99.90;;;;;;10320505;28;20307;-77
2022/06/07 08:14:29;;;;;;;7.35;6.65;;;21.00;99.90;;;;;;10316770;28;20249;-77
2022/06/07 08:19:31;;;;;;;9.80;6.38;;;21.00;99.90;;;;;;10316381;28;20248;-78
2022/06/07 08:24:34;;;;;;;6.38;5.75;;;21.00;99.90;;;;;;10321914;28;20225;-78
2022/06/07 08:29:38;;;;;;;8.82;6.05;;;21.10;99.90;;;;;;10321557;28;20682;-78
2022/06/07 08:40:26;;;;;;;5.70;5.10;;;21.30;99.90;;;;;;10328116;28;20268;-78
2022/06/07 08:45:33;;;;;;;6.15;5.65;;;21.40;99.90;;;;;;10310674;28;20736;-78
2022/06/07 08:51:14;;;;;;;7.40;5.32;;;21.40;99.90;;;;;;10319235;28;20240;-78
2022/06/07 08:56:32;;;;;;;9.57;5.90;;;21.60;99.90;;;;;;10301766;28;20311;-78
2022/06/07 09:01:47;;;;;;;4.85;4.43;;;21.80;99.90;;;;;;10275480;28;20257;-78
2022/06/07 09:06:56;;;;;;;5.72;5.22;;;21.50;99.90;;;;;;10267262;28;20236;-78
2022/06/07 09:12:14;;;;;;;5.20;4.80;;;21.90;99.90;;;;;;10264575;28;20241;-78
2022/06/07 09:17:20;;;;;;;6.38;5.32;;;21.90;99.90;;;;;;10280285;28;20299;-77
2022/06/07 09:22:29;;;;;;;4.65;4.20;;;22.20;99.90;;;;;;10288590;28;20249;-77
2022/06/07 09:27:33;;;;;;;4.93;4.53;;;22.40;99.90;;;;;;10284523;28;20637;-77
2022/06/07 09:32:36;;;;;;;5.95;5.45;;;22.50;99.90;;;;;;10282012;28;20615;-77
2022/06/07 09:37:53;;;;;;;5.72;4.35;;;22.70;99.90;;;;;;10282504;28;20238;-80
2022/06/07 09:43:17;;;;;;;5.45;4.95;;;22.70;99.90;;;;;;10276506;28;20261;-80
2022/06/07 09:48:32;;;;;;;5.47;4.88;;;22.80;99.90;;;;;;10286201;28;20225;-80
2022/06/07 09:53:43;;;;;;;4.93;4.53;;;22.70;99.90;;;;;;10294653;28;20225;-79
2022/06/07 09:59:16;;;;;;;6.03;5.13;;;23.10;99.90;;;;;;10301857;28;20772;-78
2022/06/07 10:04:44;;;;;;;5.20;4.78;;;23.00;99.90;;;;;;10258500;28;20287;-78
2022/06/07 10:10:14;;;;;;;4.55;4.15;;;22.90;99.90;;;;;;10309755;28;20221;-78
2022/06/07 10:15:43;;;;;;;5.43;4.93;;;23.30;99.90;;;;;;10304334;28;20279;-78
2022/06/07 10:20:48;;;;;;;5.20;4.70;;;23.30;99.90;;;;;;10302256;28;20629;-77
2022/06/07 10:26:02;;;;;;;5.55;4.72;;;22.90;99.90;;;;;;10270803;28;20201;-78
2022/06/07 10:31:10;;;;;;;5.40;4.90;;;22.90;99.90;;;;;;10305895;28;20237;-78
2022/06/07 10:36:33;;;;;;;4.93;4.50;;;23.20;99.90;;;;;;10307123;28;20279;-78
2022/06/07 10:41:56;;;;;;;10.65;5.18;;;23.30;99.90;;;;;;10303978;28;20260;-78
2022/06/07 10:47:10;;;;;;;4.72;4.30;;;23.60;99.90;;;;;;10301361;28;20282;-77
2022/06/07 10:52:22;;;;;;;6.28;4.93;;;23.50;99.90;;;;;;10283930;28;20272;-77
2022/06/07 10:57:30;;;;;;;5.13;4.35;;;23.40;99.90;;;;;;10281802;28;20233;-76
2022/06/07 11:02:59;;;;;;;5.13;4.63;;;23.40;99.90;;;;;;10248784;28;20284;-77
2022/06/07 11:13:51;;;;;;;4.88;4.47;;;23.40;99.90;;;;;;10281462;28;20233;-77
2022/06/07 11:18:54;;;;;;;4.65;4.25;;;23.20;99.90;;;;;;10280730;28;20600;-77
2022/06/07 11:24:16;;;;;;;5.00;4.60;;;23.10;99.90;;;;;;10278396;28;20757;-78
2022/06/07 11:29:24;;;;;;;4.97;4.53;;;23.00;99.90;;;;;;10282976;28;20241;-78
2022/06/07 11:34:35;;;;;;;5.35;4.80;;;22.70;99.90;;;;;;10274044;28;20233;-77
2022/06/07 11:39:38;;;;;;;4.90;4.22;;;22.60;99.90;;;;;;10270344;28;20268;-77
2022/06/07 11:44:45;;;;;;;4.47;4.07;;;22.60;99.90;;;;;;10288274;28;20634;-78
2022/06/07 11:49:51;;;;;;;5.05;4.55;;;22.50;99.90;;;;;;10285333;28;20756;-77
2022/06/07 11:55:15;;;;;;;5.63;5.10;;;22.60;99.90;;;;;;10267219;28;20234;-77
2022/06/07 12:00:32;;;;;;;5.65;5.15;;;22.70;99.90;;;;;;10285770;28;20311;-77
2022/06/07 12:05:41;;;;;;;4.85;4.45;;;22.40;99.90;;;;;;10293262;28;20252;-79
2022/06/07 12:11:22;;;;;;;5.00;4.60;;;22.00;99.90;;;;;;10302593;28;20241;-80
2022/06/07 12:16:32;;;;;;;7.80;5.05;;;22.30;99.90;;;;;;10283289;28;20236;-79
2022/06/07 12:21:45;;;;;;;9.80;5.38;;;22.40;99.90;;;;;;10283933;28;20325;-79
2022/06/07 12:26:48;;;;;;;8.55;5.32;;;22.50;99.90;;;;;;10287218;28;20698;-80
2022/06/07 12:31:57;;;;;;;5.72;4.55;;;22.60;99.90;;;;;;10282841;28;20283;-77
2022/06/07 12:37:11;;;;;;;9.05;4.85;;;22.40;99.90;;;;;;10310998;28;20236;-77
2022/06/07 12:42:16;;;;;;;4.38;4.03;;;22.30;99.90;;;;;;10289053;28;20261;-77
2022/06/07 12:47:31;;;;;;;4.15;3.85;;;22.30;99.90;;;;;;10283210;28;20241;-77
2022/06/07 12:52:34;;;;;;;4.53;4.13;;;22.30;99.90;;;;;;10292289;28;20240;-77
2022/06/07 12:57:46;;;;;;;4.25;3.95;;;22.60;99.90;;;;;;10281406;28;20241;-77
2022/06/07 13:02:57;;;;;;;5.57;5.07;;;22.60;99.90;;;;;;10269986;28;20304;-79
2022/06/07 13:08:02;;;;;;;4.82;4.40;;;22.40;99.90;;;;;;10291846;28;20637;-79
2022/06/07 13:13:12;;;;;;;5.07;4.55;;;22.40;99.90;;;;;;10273689;28;20270;-78
2022/06/07 13:18:15;;;;;;;5.10;4.65;;;22.40;99.90;;;;;;10273376;28;20291;-78
2022/06/07 13:23:25;;;;;;;5.22;4.72;;;22.30;99.90;;;;;;10290539;28;20720;-79
2022/06/07 13:28:35;;;;;;;7.28;4.43;;;22.30;99.90;;;;;;10289335;28;20237;-80
2022/06/07 13:33:37;;;;;;;16.13;6.68;;;22.00;99.90;;;;;;10251573;28;20289;-80
2022/06/07 13:38:40;;;;;;;5.90;5.32;;;22.00;99.90;;;;;;10251084;29;20238;-80
2022/06/07 13:44:19;;;;;;;5.05;4.55;;;22.00;99.90;;;;;;10250554;29;20274;-79
2022/06/07 13:55:02;;;;;;;4.47;4.05;;;21.80;99.90;;;;;;10250571;29;20300;-79
2022/06/07 14:00:07;;;;;;;6.88;4.82;;;21.60;99.90;;;;;;10233277;29;20298;-79
2022/06/07 14:05:30;;;;;;;5.18;4.68;;;21.50;99.90;;;;;;10261535;28;20245;-79
2022/06/07 14:10:33;;;;;;;7.10;4.68;;;21.40;99.90;;;;;;10250131;29;20242;-79
2022/06/07 14:15:43;;;;;;;6.53;5.97;;;21.20;99.90;;;;;;10248299;29;20245;-79
2022/06/07 14:20:48;;;;;;;5.13;4.70;;;21.20;99.90;;;;;;10249142;28;20250;-81
2022/06/07 14:25:50;;;;;;;4.90;4.50;;;21.00;99.90;;;;;;10268452;28;20951;-80
2022/06/07 14:30:54;;;;;;;5.68;5.15;;;21.00;99.90;;;;;;10271031;28;20260;-79
2022/06/07 14:35:57;;;;;;;5.18;4.50;;;20.80;99.90;;;;;;10288591;28;20233;-80
2022/06/07 14:40:59;;;;;;;4.38;4.00;;;20.80;99.90;;;;;;10283255;28;20264;-81
2022/06/07 14:46:17;;;;;;;18.58;6.30;;;20.50;99.90;;;;;;10306164;23;20292;-82
2022/06/07 14:51:30;;;;;;;8.10;3.38;;;20.90;99.90;;;;;;10271704;28;20281;-83
2022/06/07 14:56:35;;;;;;;5.43;3.83;;;21.10;99.90;;;;;;10256651;28;20225;-82
2022/06/07 15:01:49;;;;;;;12.43;4.97;;;21.10;99.90;;;;;;10278586;28;20245;-82
2022/06/07 15:06:52;;;;;;;16.20;4.97;;;21.20;99.90;;;;;;10281510;28;20280;-83
2022/06/07 15:11:56;;;;;;;7.22;4.20;;;21.10;99.90;;;;;;10287156;28;20231;-82
2022/06/07 15:16:59;;;;;;;7.60;4.82;;;20.80;99.90;;;;;;10279895;28;20292;-82
2022/06/07 15:22:01;;;;;;;9.25;4.30;;;21.00;99.90;;;;;;10257767;28;20273;-83
2022/06/07 15:27:05;;;;;;;11.70;5.45;;;20.80;99.90;;;;;;10260140;28;20229;-82
2022/06/07 15:32:18;;;;;;;9.43;5.07;;;20.60;99.90;;;;;;10264713;28;20697;-82
2022/06/07 15:37:22;;;;;;;8.52;4.45;;;20.40;99.90;;;;;;10266785;28;20725;-82
2022/06/07 15:47:57;;;;;;;8.13;4.15;;;20.50;99.90;;;;;;10266630;28;20265;-82
2022/06/07 15:53:01;;;;;;;7.85;5.38;;;21.00;99.90;;;;;;10255488;28;20218;-83
2022/06/07 16:03:26;;;;;;;12.40;5.50;;;21.60;99.90;;;;;;10288270;28;20249;-83
2022/06/07 16:08:29;;;;;;;7.00;4.20;;;21.60;99.90;;;;;;10289504;28;20260;-83
2022/06/07 16:19:10;;;;;;;7.38;5.95;;;21.80;99.90;;;;;;11158049;23;20292;-83
2022/06/07 16:24:13;;;;;;;5.95;4.15;;;21.80;99.90;;;;;;10285294;28;20714;-83
2022/06/07 16:34:37;;;;;;;9.50;5.70;;;22.10;99.90;;;;;;10291020;28;20256;-83
2022/06/07 16:39:39;;;;;;;4.20;3.40;;;21.30;99.90;;;;;;10267431;28;20229;-83
2022/06/07 16:44:42;;;;;;;5.50;4.25;;;21.60;99.90;;;;;;10311556;28;20244;-83
2022/06/07 16:49:45;;;;;;;4.90;4.50;;;21.30;99.90;;;;;;10344464;28;20213;-83
2022/06/07 16:54:47;;;;;;;5.25;4.30;;;21.20;99.90;;;;;;10328554;28;20221;-83
2022/06/07 16:59:50;;;;;;;5.03;4.50;;;21.40;99.90;;;;;;10336706;28;20216;-83
2022/06/07 17:04:52;;;;;;;5.32;4.75;;;20.90;99.90;;;;;;10340071;28;20237;-83
2022/06/07 17:09:59;;;;;;;6.70;6.00;;;21.20;99.90;;;;;;10345907;28;20205;-83
2022/06/07 17:15:02;;;;;;;9.35;7.35;;;19.40;99.90;;;;;;10289216;28;20183;-83
2022/06/07 17:20:05;;;;;;;10.30;7.70;;;18.30;99.90;;;;;;10304504;28;20218;-83
2022/06/07 17:25:09;;;;;;;10.90;9.57;;;17.50;99.90;;;;;;10339147;28;20244;-84
2022/06/07 17:30:13;;;;;;;10.57;9.23;;;17.20;99.90;;;;;;10345414;28;20206;-84
2022/06/07 17:35:20;;;;;;;10.67;9.57;;;17.00;99.90;;;;;;10342003;28;20197;-85
2022/06/07 17:40:29;;;;;;;11.40;10.20;;;17.10;99.90;;;;;;10338406;28;20197;-84
2022/06/07 17:45:32;;;;;;;11.20;10.07;;;17.10;99.90;;;;;;10333562;28;20200;-85
2022/06/07 17:50:38;;;;;;;11.23;9.37;;;16.90;99.90;;;;;;10335510;28;20182;-84
2022/06/07 17:55:43;;;;;;;13.07;10.87;;;16.90;99.90;;;;;;10323785;28;20202;-84
2022/06/07 18:00:45;;;;;;;15.53;11.83;;;16.80;99.90;;;;;;10339596;28;20213;-85
2022/06/07 18:05:48;;;;;;;17.40;10.73;;;16.60;99.90;;;;;;10334360;28;20202;-84
2022/06/07 18:10:51;;;;;;;14.20;11.27;;;16.50;99.90;;;;;;10338207;28;20204;-85
2022/06/07 18:15:57;;;;;;;14.10;12.27;;;16.50;99.90;;;;;;10310923;28;20222;-84
2022/06/07 18:21:02;;;;;;;14.63;12.33;;;16.40;99.90;;;;;;10308878;28;20333;-85
2022/06/07 18:26:06;;;;;;;15.07;12.90;;;16.30;99.90;;;;;;10325154;28;20221;-85
2022/06/07 18:31:23;;;;;;;24.43;12.17;;;16.30;99.90;;;;;;10371668;28;20185;-85
2022/06/07 18:36:28;;;;;;;14.10;12.43;;;16.30;99.90;;;;;;10291158;28;20220;-85
2022/06/07 18:41:33;;;;;;;17.47;13.53;;;16.20;99.90;;;;;;10311681;28;20205;-84
2022/06/07 18:46:36;;;;;;;12.93;11.73;;;16.30;99.90;;;;;;10323764;28;20197;-84
2022/06/07 18:51:41;;;;;;;15.53;12.67;;;16.20;99.90;;;;;;10327714;28;20204;-84
2022/06/07 18:56:44;;;;;;;14.90;13.30;;;16.10;99.90;;;;;;10339815;28;20197;-85
2022/06/07 19:01:48;;;;;;;15.73;13.33;;;15.90;99.90;;;;;;10324192;28;20205;-85
2022/06/07 19:06:50;;;;;;;16.03;14.37;;;16.00;99.90;;;;;;10309549;28;20209;-85
2022/06/07 19:11:54;;;;;;;18.00;14.47;;;15.90;99.90;;;;;;10297959;28;20208;-85
2022/06/07 19:16:57;;;;;;;17.10;13.87;;;15.80;99.90;;;;;;10307015;28;20233;-85
2022/06/07 19:22:00;;;;;;;19.67;16.00;;;15.70;99.90;;;;;;10333856;28;20227;-84
2022/06/07 19:27:03;;;;;;;21.33;16.40;;;15.60;99.90;;;;;;10332918;28;20229;-84
2022/06/07 19:32:07;;;;;;;19.63;14.33;;;15.60;99.90;;;;;;10288574;28;20209;-84
2022/06/07 19:37:09;;;;;;;19.60;16.33;;;15.60;99.90;;;;;;10282536;28;20242;-84
2022/06/07 19:42:12;;;;;;;25.03;16.60;;;15.60;99.90;;;;;;10260436;28;20232;-84
2022/06/07 19:47:15;;;;;;;17.83;15.47;;;15.60;99.90;;;;;;10295528;28;20201;-83
2022/06/07 19:52:17;;;;;;;8.53;7.40;;;15.50;99.90;;;;;;10318246;28;20258;-84
2022/06/07 19:57:20;;;;;;;6.83;6.00;;;17.30;99.90;;;;;;10338579;28;20212;-84
2022/06/07 20:02:23;;;;;;;6.47;5.87;;;18.50;99.90;;;;;;10304735;28;20225;-84
2022/06/07 20:07:26;;;;;;;5.07;4.63;;;19.40;99.90;;;;;;10287159;28;20229;-83
2022/06/07 20:12:28;;;;;;;5.57;5.07;;;19.90;99.90;;;;;;10326327;28;20251;-83
2022/06/07 20:17:31;;;;;;;4.72;4.30;;;;;;;;;;10314646;28;20296;-83
2022/06/07 20:22:34;;;;;;;5.20;4.70;;;20.60;99.90;;;;;;10258947;29;20234;-83
2022/06/07 20:27:37;;;;;;;4.70;4.30;;;20.80;99.90;;;;;;10293171;28;20206;-82
2022/06/07 20:32:40;;;;;;;4.28;3.83;;;20.90;99.90;;;;;;10283612;28;20733;-82
2022/06/07 20:37:48;;;;;;;4.78;4.28;;;21.00;99.90;;;;;;10277001;28;20210;-83
2022/06/07 20:42:50;;;;;;;4.75;4.35;;;21.10;99.90;;;;;;10298074;28;20280;-83
2022/06/07 20:47:53;;;;;;;5.05;4.65;;;21.10;99.90;;;;;;10296326;28;20257;-83
2022/06/07 20:52:55;;;;;;;5.13;4.63;;;21.10;99.90;;;;;;10296440;28;20198;-83
2022/06/07 20:57:58;;;;;;;4.38;4.05;;;21.20;99.90;;;;;;10263042;28;20206;-83
2022/06/07 21:03:01;;;;;;;4.75;4.35;;;21.20;99.90;;;;;;10282601;28;20218;-83
2022/06/07 21:08:05;;;;;;;4.53;3.88;;;21.20;99.90;;;;;;10279265;28;20268;-83
2022/06/07 21:13:07;;;;;;;4.65;4.25;;;21.20;99.90;;;;;;10279910;28;20272;-83
2022/06/07 21:18:10;;;;;;;4.90;4.50;;;21.20;99.90;;;;;;10260994;28;20270;-83
2022/06/07 21:23:12;;;;;;;5.18;4.13;;;21.20;99.90;;;;;;10292413;28;20647;-83
2022/06/07 21:28:15;;;;;;;4.75;4.35;;;21.20;99.90;;;;;;10275674;28;20234;-83
2022/06/07 21:33:18;;;;;;;5.40;4.15;;;20.80;99.90;;;;;;10316367;28;20232;-84
2022/06/07 21:38:20;;;;;;;4.63;4.22;;;21.00;99.90;;;;;;10283541;28;20237;-84
2022/06/07 21:43:23;;;;;;;4.38;4.07;;;21.10;99.90;;;;;;10297593;28;20316;-84
2022/06/07 21:48:26;;;;;;;4.93;4.38;;;21.10;99.90;;;;;;10289752;28;20229;-84
2022/06/07 21:53:30;;;;;;;5.05;4.65;;;21.10;99.90;;;;;;10269035;28;20222;-84
2022/06/07 21:58:33;;;;;;;4.78;4.38;;;21.10;99.90;;;;;;10265757;28;20237;-84
2022/06/07 22:03:36;;;;;;;4.45;3.97;;;21.10;99.90;;;;;;10283120;28;20265;-84
2022/06/07 22:08:40;;;;;;;4.63;4.32;;;21.10;99.90;;;;;;10288152;28;20237;-84
2022/06/07 22:13:46;;;;;;;4.47;4.07;;;21.10;99.90;;;;;;10280583;28;20253;-84
2022/06/07 22:18:49;;;;;;;4.88;4.50;;;21.10;99.90;;;;;;10274425;28;20332;-83
2022/06/07 22:23:52;;;;;;;4.82;4.32;;;21.10;99.90;;;;;;10272054;28;20249;-84
2022/06/07 22:34:15;;;;;;;4.30;3.95;;;21.10;99.90;;;;;;10299560;28;20919;-84
2022/06/07 22:39:18;;;;;;;5.07;4.68;;;21.00;99.90;;;;;;10307708;28;20237;-84
2022/06/07 22:44:20;;;;;;;4.22;3.85;;;21.00;99.90;;;;;;10284642;28;20253;-84
2022/06/07 22:49:23;;;;;;;5.05;4.57;;;21.00;99.90;;;;;;10285530;28;20237;-84
2022/06/07 22:54:36;;;;;;;4.90;4.40;;;21.00;99.90;;;;;;10283406;28;20237;-84
2022/06/07 22:59:44;;;;;;;4.50;4.10;;;21.00;99.90;;;;;;10252158;28;20358;-84
2022/06/07 23:04:52;;;;;;;4.47;4.07;;;21.00;99.90;;;;;;10274887;28;20252;-84
2022/06/07 23:09:54;;;;;;;4.68;4.30;;;21.00;99.90;;;;;;10264922;28;20636;-84
2022/06/07 23:20:19;;;;;;;4.90;4.50;;;20.90;99.90;;;;;;10283863;28;20698;-84
2022/06/07 23:25:21;;;;;;;4.45;4.05;;;20.90;99.90;;;;;;10285346;28;20323;-84
2022/06/07 23:30:25;;;;;;;4.70;4.30;;;20.90;99.90;;;;;;10249358;28;20304;-84
2022/06/07 23:35:27;;;;;;;4.80;4.40;;;20.90;99.90;;;;;;10286897;28;20275;-84
2022/06/07 23:40:30;;;;;;;4.93;4.50;;;20.80;99.90;;;;;;10287534;28;20233;-84
2022/06/07 23:45:32;;;;;;;4.30;4.00;;;20.80;99.90;;;;;;10284812;28;20308;-84
2022/06/07 23:50:41;;;;;;;4.82;4.38;;;20.80;99.90;;;;;;10288370;28;20253;-84
2022/06/07 23:55:47;;;;;;;4.45;4.15;;;20.80;99.90;;;;;;10290877;28;20213;-84
